Time;durP1;ratioP1;P1;durP2;ratioP2;P2;SDS_P1;SDS_P2;PMS_P1;PMS_P2;Temp;Humidity;BMP_temperature;BMP_pressure;BME280_temperature;BME280_humidity;BME280_pressure;Samples;Min_cycle;Max_cycle;Signal;HPM_P1;HPM_P2
2021/08/11 00:01:47;;;;;;;4.93;4.43;;;;;;;13.82;80.36;101813.44;3575753;40;20301;-80
2021/08/11 00:04:12;;;;;;;5.03;4.63;;;;;;;13.82;80.15;101809.97;3576754;40;20226;-81
2021/08/11 00:06:37;;;;;;;5.37;4.87;;;;;;;13.72;80.74;101816.63;3575971;40;20618;-80
2021/08/11 00:09:03;;;;;;;5.10;4.70;;;;;;;13.71;80.22;101816.63;3574894;40;20231;-81
2021/08/11 00:11:32;;;;;;;8.03;5.97;;;;;;;13.97;80.74;101810.31;3573513;40;20536;-80
2021/08/11 00:13:58;;;;;;;5.53;5.00;;;;;;;13.94;80.29;101805.94;3573587;40;20231;-81
2021/08/11 00:16:23;;;;;;;5.57;4.43;;;;;;;14.00;80.29;101811.22;3575663;40;20231;-81
2021/08/11 00:18:48;;;;;;;6.13;5.20;;;;;;;13.89;80.50;101810.13;3575018;40;20223;-80
2021/08/11 00:21:14;;;;;;;6.03;5.53;;;;;;;13.86;80.70;101811.78;3574967;40;20249;-81
2021/08/11 00:23:39;;;;;;;7.70;6.90;;;;;;;13.98;80.67;101818.06;3575301;40;20273;-81
2021/08/11 00:26:04;;;;;;;6.10;5.47;;;;;;;13.99;79.86;101806.91;3576406;40;20226;-80
2021/08/11 00:28:29;;;;;;;5.53;4.80;;;;;;;13.86;80.53;101815.22;3573656;40;20557;-81
2021/08/11 00:30:55;;;;;;;5.43;4.93;;;;;;;13.88;80.25;101810.09;3573277;40;20238;-80
2021/08/11 00:33:20;;;;;;;5.50;5.00;;;;;;;13.80;80.11;101807.38;3574863;40;20223;-80
2021/08/11 00:35:47;;;;;;;5.80;5.30;;;;;;;13.91;79.72;101805.88;3576262;40;20270;-80
2021/08/11 00:38:13;;;;;;;7.60;5.63;;;;;;;13.69;80.54;101813.13;3577203;40;20228;-80
2021/08/11 00:40:38;;;;;;;5.47;4.97;;;;;;;13.71;80.35;101817.47;3576365;40;20542;-80
2021/08/11 00:43:08;;;;;;;5.33;4.83;;;;;;;13.62;80.76;101819.81;3575767;40;20223;-81
2021/08/11 00:45:35;;;;;;;7.67;6.87;;;;;;;13.52;80.98;101819.56;3576362;40;20266;-80
2021/08/11 00:48:00;;;;;;;7.57;6.40;;;;;;;13.44;81.19;101813.41;3574383;40;20308;-81
2021/08/11 00:50:26;;;;;;;5.93;5.33;;;;;;;13.38;81.01;101813.25;3575368;40;20242;-80
2021/08/11 00:52:51;;;;;;;4.80;4.33;;;;;;;13.30;80.73;101809.63;3573754;40;20237;-80
2021/08/11 00:55:18;;;;;;;5.17;4.70;;;;;;;13.24;81.03;101809.47;3573181;40;20223;-81
2021/08/11 00:57:44;;;;;;;7.27;6.47;;;;;;;13.17;81.11;101816.16;3572814;40;20245;-80
2021/08/11 01:00:10;;;;;;;5.93;4.73;;;;;;;13.21;81.36;101823.13;3574895;40;20226;-80
2021/08/11 01:02:38;;;;;;;7.77;6.20;;;;;;;13.15;81.19;101817.84;3575521;40;20229;-80
2021/08/11 01:05:04;;;;;;;6.53;5.30;;;;;;;13.16;81.14;101808.44;3575533;40;20222;-81
2021/08/11 01:07:32;;;;;;;7.30;6.60;;;;;;;13.08;80.91;101808.22;3573991;40;20297;-80
2021/08/11 01:09:57;;;;;;;7.93;5.83;;;;;;;13.05;80.49;101803.03;3574968;40;20242;-80
2021/08/11 01:12:24;;;;;;;7.67;6.10;;;;;;;13.00;80.55;101803.72;3575477;40;20225;-80
2021/08/11 01:14:51;;;;;;;7.33;6.57;;;;;;;12.97;80.69;101801.97;3582779;40;20304;-80
2021/08/11 01:17:18;;;;;;;8.70;7.07;;;;;;;12.95;80.74;101801.88;3576776;40;20237;-80
2021/08/11 01:19:43;;;;;;;10.67;7.60;;;;;;;12.89;80.70;101806.88;3574954;40;20250;-81
2021/08/11 01:22:21;;;;;;;4.07;3.70;;;;;;;12.93;80.93;101800.97;3583162;40;20614;-81
2021/08/11 01:25:12;;;;;;;7.63;6.50;;;;;;;12.91;80.73;101806.91;3575209;40;20288;-80
2021/08/11 01:27:52;;;;;;;5.90;4.97;;;;;;;13.02;80.80;101799.53;3574266;40;20278;-80
2021/08/11 01:30:28;;;;;;;10.10;6.67;;;;;;;13.28;80.96;101801.88;3574325;40;20308;-80
2021/08/11 01:33:12;;;;;;;7.17;5.33;;;;;;;13.17;80.25;101803.31;3574670;40;20234;-80
2021/08/11 01:35:42;;;;;;;8.33;7.50;;;;;;;13.15;80.54;101806.69;3576494;40;20246;-80
2021/08/11 01:38:13;;;;;;;5.00;4.10;;;;;;;13.14;80.69;101804.94;3584267;40;20810;-80
2021/08/11 01:40:46;;;;;;;6.10;5.20;;;;;;;13.14;81.11;101808.41;3576663;40;20241;-80
2021/08/11 01:43:13;;;;;;;10.17;7.57;;;;;;;13.12;81.49;101804.91;3575360;40;20520;-80
2021/08/11 01:45:42;;;;;;;10.07;8.17;;;;;;;13.11;81.54;101807.47;3573648;40;20596;-81
2021/08/11 01:48:11;;;;;;;7.03;5.70;;;;;;;13.13;81.49;101806.66;3574934;40;20278;-80
2021/08/11 01:50:39;;;;;;;7.80;6.87;;;;;;;13.21;81.13;101809.41;3573713;40;20269;-80
2021/08/11 01:53:09;;;;;;;11.03;9.07;;;;;;;13.20;81.39;101810.22;3575435;40;20594;-79
2021/08/11 01:55:35;;;;;;;7.63;6.83;;;;;;;13.25;81.73;101804.38;3574755;40;20589;-80
2021/08/11 01:58:01;;;;;;;6.00;5.40;;;;;;;13.26;82.03;101806.09;3576247;40;20243;-80
2021/08/11 02:00:27;;;;;;;11.20;10.10;;;;;;;13.27;81.80;101815.59;3584086;40;20243;-80
2021/08/11 02:02:53;;;;;;;8.93;8.03;;;;;;;13.28;82.45;101808.72;3576543;40;20864;-81
2021/08/11 02:05:22;;;;;;;11.90;10.70;;;;;;;13.31;82.25;101816.50;3576072;40;20292;-80
2021/08/11 02:07:48;;;;;;;11.63;10.43;;;;;;;13.32;82.73;101819.13;3582186;40;20231;-80
2021/08/11 02:10:15;;;;;;;12.03;10.43;;;;;;;13.32;82.88;101819.13;3572048;40;20234;-81
2021/08/11 02:12:40;;;;;;;8.57;7.77;;;;;;;13.30;82.93;101820.78;3575791;40;20226;-81
2021/08/11 02:15:08;;;;;;;9.33;7.83;;;;;;;13.30;82.72;101822.50;3576176;40;20225;-80
2021/08/11 02:17:36;;;;;;;9.63;8.67;;;;;;;13.30;82.65;101823.34;3576321;40;20308;-81
2021/08/11 02:20:01;;;;;;;7.40;6.70;;;;;;;13.37;83.02;101829.50;3575839;40;20250;-81
2021/08/11 02:22:27;;;;;;;8.40;7.47;;;;;;;13.43;82.49;101821.94;3575400;40;20218;-80
2021/08/11 02:24:52;;;;;;;6.67;6.07;;;;;;;13.35;82.76;101819.19;3576607;40;20239;-81
2021/08/11 02:27:20;;;;;;;11.43;10.33;;;;;;;13.26;82.56;101818.13;3576398;40;20629;-80
2021/08/11 02:30:02;;;;;;;11.13;10.13;;;;;;;13.18;82.57;101817.03;3575342;40;20363;-81
2021/08/11 02:32:34;;;;;;;10.97;9.97;;;;;;;13.09;82.45;101817.69;3584291;40;20240;-80
2021/08/11 02:35:21;;;;;;;10.30;9.30;;;;;;;13.01;82.31;101823.47;3576178;40;20227;-80
2021/08/11 02:38:01;;;;;;;10.77;9.77;;;;;;;12.94;82.48;101833.56;3576476;40;20223;-81
2021/08/11 02:40:33;;;;;;;8.30;7.50;;;;;;;12.92;82.53;101831.78;3575947;40;20532;-80
2021/08/11 02:43:04;;;;;;;9.10;8.03;;;;;;;12.88;82.59;101834.25;3577003;40;20245;-80
2021/08/11 02:45:31;;;;;;;7.60;6.90;;;;;;;12.83;82.44;101839.25;3576002;40;20234;-81
2021/08/11 02:47:59;;;;;;;9.43;8.40;;;;;;;12.77;82.20;101839.97;3575630;40;20810;-80
2021/08/11 02:50:24;;;;;;;9.97;8.97;;;;;;;12.71;81.77;101846.63;3575650;40;20239;-81
2021/08/11 02:52:50;;;;;;;9.20;8.30;;;;;;;12.65;81.86;101844.78;3575535;40;20227;-80
2021/08/11 02:55:16;;;;;;;9.63;8.63;;;;;;;12.62;82.16;101849.84;3582474;40;20258;-81
2021/08/11 02:57:42;;;;;;;9.30;8.40;;;;;;;12.59;81.97;101848.91;3574782;40;20648;-80
2021/08/11 03:00:08;;;;;;;10.23;9.23;;;;;;;12.53;81.76;101844.44;3575221;40;20247;-80
2021/08/11 03:02:33;;;;;;;11.63;9.27;;;;;;;12.50;81.58;101846.06;3575048;40;20249;-80
2021/08/11 03:05:00;;;;;;;10.13;9.10;;;;;;;12.49;81.44;101845.19;3574781;40;20230;-80
2021/08/11 03:07:25;;;;;;;8.60;7.77;;;;;;;12.51;81.61;101856.41;3574420;40;20247;-79
2021/08/11 03:09:51;;;;;;;11.87;10.67;;;;;;;12.46;81.66;101840.00;3573159;40;20274;-80
2021/08/11 03:12:16;;;;;;;9.90;8.90;;;;;;;12.46;81.33;101851.94;3575598;40;20210;-80
2021/08/11 03:14:44;;;;;;;7.13;6.53;;;;;;;12.49;81.73;101845.19;3575347;40;20241;-79
2021/08/11 03:17:10;;;;;;;11.53;9.93;;;;;;;12.54;82.33;101851.31;3574303;40;20222;-80
2021/08/11 03:19:36;;;;;;;4.17;3.80;;;;;;;12.58;81.79;101858.28;3574371;40;20234;-80
2021/08/11 03:22:01;;;;;;;10.47;9.47;;;;;;;12.55;82.18;101847.94;3574931;40;20312;-81
2021/08/11 03:24:27;;;;;;;7.43;6.73;;;;;;;12.59;81.59;101852.31;3575582;40;20226;-81
2021/08/11 03:26:52;;;;;;;8.70;7.80;;;;;;;12.61;81.82;101850.69;3575468;40;20240;-81
2021/08/11 03:29:17;;;;;;;10.80;9.73;;;;;;;12.58;82.02;101854.88;3576541;40;20607;-81
2021/08/11 03:31:42;;;;;;;9.77;8.77;;;;;;;12.55;82.44;101858.22;3577465;40;20254;-81
2021/08/11 03:34:08;;;;;;;4.97;4.57;;;;;;;12.54;81.86;101859.03;3574069;40;20243;-79
2021/08/11 03:36:33;;;;;;;6.30;5.80;;;;;;;12.54;82.05;101855.63;3574007;40;20241;-80
2021/08/11 03:38:59;;;;;;;5.30;4.63;;;;;;;12.58;81.81;101854.88;3574260;40;20335;-80
2021/08/11 03:41:25;;;;;;;6.93;6.33;;;;;;;12.55;82.16;101853.09;3576044;40;20246;-81
2021/08/11 03:43:50;;;;;;;6.83;6.23;;;;;;;12.69;82.14;101853.44;3577704;40;20234;-81
2021/08/11 03:46:15;;;;;;;5.80;5.30;;;;;;;12.69;81.80;101848.31;3575226;40;20238;-80
2021/08/11 03:48:40;;;;;;;4.30;3.90;;;;;;;12.62;81.98;101859.25;3574310;40;20253;-80
2021/08/11 03:51:06;;;;;;;5.23;4.77;;;;;;;12.59;82.35;101854.88;3574013;40;20253;-80
2021/08/11 03:53:31;;;;;;;5.60;4.97;;;;;;;12.56;82.03;101857.41;3574015;40;20237;-80
2021/08/11 03:55:56;;;;;;;4.63;4.23;;;;;;;12.53;82.73;101857.28;3573386;40;20288;-80
2021/08/11 03:58:21;;;;;;;6.37;5.73;;;;;;;12.56;82.31;101867.66;3574314;40;20225;-80
2021/08/11 04:00:47;;;;;;;7.37;6.67;;;;;;;12.57;82.44;101865.94;3574200;40;20795;-80
2021/08/11 04:03:12;;;;;;;8.20;7.50;;;;;;;12.50;82.42;101867.47;3576003;40;20242;-80
2021/08/11 04:05:37;;;;;;;7.10;6.40;;;;;;;12.56;82.29;101874.50;3575788;40;20240;-82
2021/08/11 04:08:03;;;;;;;6.27;5.73;;;;;;;12.67;81.87;101870.53;3575116;40;20233;-82
2021/08/11 04:10:28;;;;;;;6.50;5.90;;;;;;;12.69;81.94;101874.00;3575438;40;20258;-81
2021/08/11 04:12:53;;;;;;;8.30;7.50;;;;;;;12.59;82.29;101872.03;3577439;40;20598;-82
2021/08/11 04:15:19;;;;;;;5.80;5.30;;;;;;;12.61;81.87;101868.66;3577050;40;20249;-81
2021/08/11 04:17:44;;;;;;;8.33;7.53;;;;;;;12.65;81.62;101873.06;3577104;40;20251;-81
2021/08/11 04:20:10;;;;;;;10.03;8.03;;;;;;;12.69;81.35;101872.31;3577914;40;20250;-81
2021/08/11 04:22:35;;;;;;;7.80;7.10;;;;;;;12.74;81.41;101864.72;3578534;40;20517;-82
2021/08/11 04:25:00;;;;;;;9.13;8.10;;;;;;;12.71;81.23;101870.66;3576942;40;20230;-80
2021/08/11 04:27:26;;;;;;;8.50;7.80;;;;;;;12.77;81.00;101867.38;3576935;40;20236;-81
2021/08/11 04:29:51;;;;;;;9.93;8.90;;;;;;;13.03;80.34;101868.09;3576703;40;20242;-81
2021/08/11 04:32:16;;;;;;;6.53;5.97;;;;;;;12.79;80.40;101858.88;3577635;40;20222;-81
2021/08/11 04:34:42;;;;;;;4.87;4.40;;;;;;;12.66;81.52;101858.50;3577280;40;20265;-80
2021/08/11 04:37:07;;;;;;;7.60;6.90;;;;;;;12.78;81.65;101859.72;3577685;40;20238;-81
2021/08/11 04:39:33;;;;;;;5.07;4.67;;;;;;;12.70;81.80;101862.91;3577697;40;20246;-80
2021/08/11 04:41:58;;;;;;;8.03;7.33;;;;;;;12.81;81.66;101856.38;3577213;40;20219;-81
2021/08/11 04:44:24;;;;;;;8.70;7.57;;;;;;;13.03;80.90;101860.38;3578280;40;20535;-81
2021/08/11 04:46:49;;;;;;;6.90;6.30;;;;;;;12.91;80.78;101866.91;3578814;40;20288;-80
2021/08/11 04:49:14;;;;;;;7.07;6.47;;;;;;;12.82;81.07;101863.25;3577527;40;20875;-81
2021/08/11 04:51:39;;;;;;;4.90;4.50;;;;;;;12.83;81.34;101867.53;3576572;40;20842;-81
2021/08/11 04:54:05;;;;;;;6.03;5.60;;;;;;;12.77;81.38;101865.66;3577658;40;20276;-81
2021/08/11 04:56:30;;;;;;;8.30;7.50;;;;;;;12.95;81.61;101862.72;3576678;40;20246;-81
2021/08/11 04:58:55;;;;;;;7.27;6.57;;;;;;;12.88;81.15;101879.69;3577067;40;20230;-80
2021/08/11 05:01:21;;;;;;;9.07;8.17;;;;;;;12.83;81.63;101881.28;3577168;40;20227;-81
2021/08/11 05:03:46;;;;;;;6.37;5.73;;;;;;;12.79;81.97;101882.03;3577752;40;20226;-81
2021/08/11 05:06:11;;;;;;;8.73;7.57;;;;;;;12.81;81.92;101889.78;3577836;40;20547;-81
2021/08/11 05:08:38;;;;;;;5.63;5.13;;;;;;;12.79;82.46;101899.13;3577097;40;20226;-81
2021/08/11 05:11:04;;;;;;;9.03;8.23;;;;;;;12.83;82.79;101898.38;3583319;40;20239;-81
2021/08/11 05:13:29;;;;;;;5.23;4.03;;;;;;;12.85;83.05;101907.00;3578171;40;20658;-80
2021/08/11 05:15:54;;;;;;;7.03;6.40;;;;;;;12.99;83.11;101904.84;3577815;40;20625;-81
2021/08/11 05:18:20;;;;;;;8.93;8.10;;;;;;;12.99;83.06;101912.56;3576156;40;20223;-81
2021/08/11 05:20:45;;;;;;;8.90;8.10;;;;;;;13.09;83.26;101911.97;3576821;40;20344;-81
2021/08/11 05:23:11;;;;;;;8.90;8.00;;;;;;;13.25;83.10;101907.25;3577923;40;20238;-81
2021/08/11 05:25:36;;;;;;;8.90;7.40;;;;;;;13.24;83.09;101895.22;3579028;40;20237;-80
2021/08/11 05:28:01;;;;;;;8.33;7.60;;;;;;;13.28;82.65;101903.88;3577101;40;20246;-80
2021/08/11 05:30:27;;;;;;;8.83;7.93;;;;;;;13.39;82.82;101907.63;3577301;40;20257;-80
2021/08/11 05:32:52;;;;;;;19.00;10.43;;;;;;;13.42;82.25;101912.81;3577419;40;20626;-82
2021/08/11 05:35:17;;;;;;;12.10;9.73;;;;;;;13.55;82.06;101913.19;3576319;40;20320;-80
2021/08/11 05:37:42;;;;;;;9.17;8.27;;;;;;;13.57;82.84;101919.22;3577995;40;20660;-81
2021/08/11 05:40:09;;;;;;;9.90;8.90;;;;;;;13.63;82.77;101914.22;3577475;40;20250;-80
2021/08/11 05:42:34;;;;;;;8.30;7.50;;;;;;;13.74;82.63;101912.78;3579478;40;20230;-81
2021/08/11 05:44:59;;;;;;;11.17;10.07;;;;;;;13.88;81.74;101913.97;3579198;40;20730;-81
2021/08/11 05:47:24;;;;;;;10.93;9.83;;;;;;;14.00;81.47;101911.66;3578320;40;20219;-81
2021/08/11 05:49:50;;;;;;;8.20;7.40;;;;;;;14.00;81.87;101913.38;3577800;40;20250;-81
2021/08/11 05:52:15;;;;;;;12.37;11.13;;;;;;;14.07;81.61;101921.28;3577780;40;20253;-81
2021/08/11 05:54:40;;;;;;;11.37;10.23;;;;;;;14.22;81.44;101915.66;3577887;40;20223;-81
2021/08/11 05:57:07;;;;;;;9.20;7.97;;;;;;;14.17;81.79;101918.06;3577841;40;20270;-80
2021/08/11 05:59:33;;;;;;;11.77;9.27;;;;;;;14.13;82.18;101925.72;3574608;40;20238;-81
2021/08/11 06:01:59;;;;;;;10.80;9.30;;;;;;;14.24;82.17;101919.13;3569460;40;20239;-80
2021/08/11 06:04:25;;;;;;;12.63;10.60;;;;;;;14.37;82.60;101926.28;3567194;40;20223;-81
2021/08/11 06:06:51;;;;;;;12.33;11.00;;;;;;;14.63;82.32;101918.25;3576680;40;20222;-81
2021/08/11 06:09:16;;;;;;;14.53;12.60;;;;;;;14.84;82.21;101918.69;3576732;40;20446;-81
2021/08/11 06:11:41;;;;;;;14.67;12.80;;;;;;;15.09;82.22;101919.97;3576654;40;20239;-81
2021/08/11 06:14:07;;;;;;;14.07;12.23;;;;;;;15.14;81.99;101913.22;3577200;40;20218;-81
2021/08/11 06:16:32;;;;;;;14.77;13.27;;;;;;;15.56;80.77;101919.16;3575309;40;20246;-82
2021/08/11 06:18:58;;;;;;;16.33;12.43;;;;;;;15.87;79.94;101908.44;3565308;40;20691;-81
2021/08/11 06:21:24;;;;;;;18.47;14.67;;;;;;;15.68;79.67;101921.91;3565877;40;20243;-79
2021/08/11 06:23:51;;;;;;;17.53;14.57;;;;;;;15.83;80.05;101911.81;3565927;40;20230;-81
2021/08/11 06:26:17;;;;;;;16.77;14.40;;;;;;;15.95;79.97;101917.19;3566962;40;20273;-81
2021/08/11 06:28:42;;;;;;;18.73;15.57;;;;;;;16.27;79.05;101908.16;3566350;40;20244;-80
2021/08/11 06:31:08;;;;;;;15.43;13.33;;;;;;;16.21;78.19;101908.94;3574031;40;20620;-80
2021/08/11 06:33:33;;;;;;;16.50;12.43;;;;;;;16.14;78.96;101916.59;3572529;40;20239;-79
2021/08/11 06:35:58;;;;;;;14.93;12.00;;;;;;;16.13;79.59;101913.16;3565364;40;20229;-80
2021/08/11 06:38:23;;;;;;;17.40;15.07;;;;;;;16.47;77.51;101912.78;3572870;40;20513;-81
2021/08/11 06:40:49;;;;;;;11.60;9.93;;;;;;;16.50;78.62;101918.00;3577582;40;20254;-82
2021/08/11 06:43:14;;;;;;;19.63;14.13;;;;;;;16.98;76.37;101915.97;3578638;40;20222;-81
2021/08/11 06:45:40;;;;;;;13.90;12.33;;;;;;;16.83;75.76;101918.38;3578643;40;20540;-83
2021/08/11 06:48:05;;;;;;;15.97;13.40;;;;;;;17.24;75.01;101919.69;3578217;40;20227;-81
2021/08/11 06:50:30;;;;;;;19.53;13.50;;;;;;;17.40;74.97;101919.00;3578168;40;20246;-81
2021/08/11 06:52:55;;;;;;;12.33;10.93;;;;;;;17.20;75.52;101928.28;3578543;40;20214;-81
2021/08/11 06:55:21;;;;;;;14.20;11.83;;;;;;;17.27;75.53;101934.38;3578963;40;20696;-82
2021/08/11 06:57:49;;;;;;;12.33;11.03;;;;;;;17.22;75.93;101934.31;3578840;40;20237;-81
2021/08/11 07:00:15;;;;;;;15.87;13.17;;;;;;;17.46;75.57;101937.16;3579093;40;20242;-81
2021/08/11 07:02:40;;;;;;;12.73;10.47;;;;;;;17.39;75.09;101935.41;3577631;40;20583;-81
2021/08/11 07:05:06;;;;;;;14.57;11.80;;;;;;;17.58;75.28;101937.28;3578197;40;20227;-82
2021/08/11 07:07:32;;;;;;;13.63;10.87;;;;;;;17.56;75.64;101923.47;3577113;40;20230;-80
2021/08/11 07:09:57;;;;;;;15.63;12.73;;;;;;;17.82;74.77;101932.28;3577743;40;20238;-82
2021/08/11 07:12:23;;;;;;;12.10;10.23;;;;;;;17.83;74.81;101936.63;3577770;40;20270;-81
2021/08/11 07:14:52;;;;;;;15.60;10.43;;;;;;;17.86;75.45;101936.66;3576827;40;20219;-81
2021/08/11 07:17:17;;;;;;;12.53;10.70;;;;;;;18.24;73.33;101932.56;3575214;40;20230;-82
2021/08/11 07:19:42;;;;;;;12.27;10.30;;;;;;;18.35;72.87;101936.16;3572220;40;20254;-82
2021/08/11 07:22:10;;;;;;;10.27;7.77;;;;;;;18.38;72.55;101933.53;3577682;40;20223;-81
2021/08/11 07:24:35;;;;;;;14.00;11.63;;;;;;;18.84;70.97;101930.28;3577931;40;20235;-82
2021/08/11 07:27:02;;;;;;;11.60;8.07;;;;;;;18.70;71.12;101931.97;3577879;40;20330;-82
2021/08/11 07:29:27;;;;;;;9.53;7.90;;;;;;;18.76;72.75;101934.59;3576977;40;20223;-82
2021/08/11 07:31:52;;;;;;;10.73;8.83;;;;;;;18.85;72.75;101939.84;3576315;40;20234;-81
2021/08/11 07:34:18;;;;;;;10.63;7.50;;;;;;;19.11;71.10;101942.50;3576277;40;20241;-82
2021/08/11 07:36:44;;;;;;;10.37;7.50;;;;;;;19.32;69.36;101938.22;3576701;40;20230;-81
2021/08/11 07:39:09;;;;;;;9.27;7.37;;;;;;;19.53;69.06;101946.03;3576123;40;20246;-81
2021/08/11 07:41:34;;;;;;;10.03;6.23;;;;;;;19.69;67.35;101944.31;3575899;40;20238;-81
2021/08/11 07:44:00;;;;;;;7.63;5.90;;;;;;;19.85;66.78;101953.84;3575440;40;20305;-81
2021/08/11 07:46:25;;;;;;;7.87;6.80;;;;;;;20.05;66.48;101954.69;3574689;40;20310;-81
2021/08/11 07:48:51;;;;;;;8.37;7.17;;;;;;;20.29;65.97;101947.75;3573697;40;20523;-81
2021/08/11 07:51:16;;;;;;;6.97;5.90;;;;;;;20.46;65.06;101953.75;3573794;40;20238;-81
2021/08/11 07:53:41;;;;;;;8.10;6.10;;;;;;;20.74;65.04;101951.91;3573734;40;20238;-80
2021/08/11 07:56:06;;;;;;;9.47;6.33;;;;;;;20.87;63.74;101948.41;3573600;40;20230;-81
2021/08/11 07:58:33;;;;;;;10.03;6.23;;;;;;;21.08;62.42;101943.09;3574356;40;20607;-81
2021/08/11 08:00:59;;;;;;;9.50;6.53;;;;;;;21.09;61.89;101943.09;3562191;40;20250;-80
2021/08/11 08:03:24;;;;;;;8.97;6.23;;;;;;;21.05;62.25;101943.97;3572191;40;20234;-80
2021/08/11 08:05:49;;;;;;;7.67;6.80;;;;;;;21.26;61.16;101943.84;3573072;40;20296;-81
2021/08/11 08:08:15;;;;;;;7.37;5.67;;;;;;;21.06;63.26;101944.84;3573176;40;20231;-80
2021/08/11 08:10:40;;;;;;;7.57;5.63;;;;;;;21.13;63.36;101941.31;3572096;40;20239;-80
2021/08/11 08:13:05;;;;;;;6.37;5.67;;;;;;;21.38;62.06;101940.28;3572808;40;20242;-80
2021/08/11 08:15:31;;;;;;;10.00;5.90;;;;;;;21.37;62.98;101946.38;3573298;40;20215;-80
2021/08/11 08:17:56;;;;;;;8.27;5.80;;;;;;;21.57;61.98;101947.09;3570465;40;20290;-85
2021/08/11 08:20:21;;;;;;;9.40;5.53;;;;;;;21.69;60.84;101945.28;3571862;40;20242;-80
2021/08/11 08:22:48;;;;;;;13.70;9.20;;;;;;;22.00;59.30;101944.13;3572599;40;20214;-81
2021/08/11 08:25:14;;;;;;;10.47;7.73;;;;;;;21.84;61.00;101946.91;3572007;40;20619;-80
2021/08/11 08:27:40;;;;;;;8.17;6.00;;;;;;;21.91;60.44;101945.94;3571963;40;20292;-80
2021/08/11 08:30:06;;;;;;;6.87;6.00;;;;;;;21.98;58.76;101943.28;3603956;22;20379;-77
2021/08/11 09:06:09;;;;;;;6.60;5.80;;;;;;;21.43;60.82;101964.59;3810180;23;20267;-85
2021/08/11 09:08:34;;;;;;;7.53;5.30;;;;;;;21.66;57.80;101958.31;3556104;40;20228;-82
2021/08/11 09:11:19;;;;;;;8.13;5.27;;;;;;;21.67;56.70;101953.97;3552604;40;20248;-81
2021/08/11 09:13:45;;;;;;;7.10;5.47;;;;;;;21.83;56.25;101959.06;3559696;40;20334;-83
2021/08/11 09:16:36;;;;;;;8.90;5.30;;;;;;;21.95;55.25;101958.97;3560781;40;20243;-82
2021/08/11 09:19:01;;;;;;;7.40;5.10;;;;;;;22.08;55.00;101962.31;3562440;40;20239;-83
2021/08/11 09:21:27;;;;;;;7.17;5.23;;;;;;;22.12;55.75;101964.88;3561188;40;20227;-84
2021/08/11 09:23:52;;;;;;;8.40;5.20;;;;;;;22.04;55.40;101968.44;3572317;40;20216;-84
2021/08/11 09:26:17;;;;;;;6.33;5.07;;;;;;;22.07;56.88;101963.22;3559683;40;20262;-82
2021/08/11 09:28:45;;;;;;;7.13;4.97;;;;;;;22.32;55.35;101962.06;3557727;40;20229;-84
2021/08/11 09:31:30;;;;;;;7.57;5.10;;;;;;;22.45;54.29;101961.09;3563368;40;20826;-82
2021/08/11 09:33:58;;;;;;;7.37;5.10;;;;;;;22.54;53.61;101963.59;3548132;40;20263;-80
2021/08/11 09:36:24;;;;;;;6.80;4.87;;;;;;;22.56;53.93;101961.81;3559907;40;20313;-82
2021/08/11 09:40:45;;;;;;;8.73;5.17;;;;;;;22.85;53.94;101957.13;2633491;54;20465;-85
2021/08/11 09:43:15;;;;;;;5.93;4.00;;;;;;;22.94;53.67;101957.00;2634376;46;20767;-84
2021/08/11 09:45:52;;;;;;;6.93;4.83;;;;;;;23.13;52.53;101957.59;2634232;46;20158;-85
2021/08/11 09:48:19;;;;;;;5.57;3.97;;;;;;;23.42;53.60;101952.84;2627434;46;20774;-86
2021/08/11 09:50:47;;;;;;;5.53;4.70;;;;;;;23.62;54.60;101961.25;2635435;38;20765;-86
2021/08/11 09:53:34;;;;;;;7.53;4.72;;;;;;;24.01;51.91;101955.38;2632457;46;20174;-84
2021/08/11 09:58:32;;;;;;;6.80;4.95;;;;;;;24.01;49.89;101953.63;2634054;38;20866;-81
2021/08/11 10:00:57;;;;;;;5.50;4.28;;;;;;;24.09;49.58;101959.59;2633258;54;20171;-82
2021/08/11 10:03:23;;;;;;;5.63;4.45;;;;;;;24.01;50.32;101961.47;2632809;46;20135;-81
2021/08/11 10:05:50;;;;;;;6.70;5.30;;;;;;;24.11;50.55;101957.78;2632525;46;20727;-81
2021/08/11 10:08:26;;;;;;;5.00;4.32;;;;;;;24.16;51.75;101961.19;2632277;54;20171;-82
2021/08/11 10:10:51;;;;;;;4.82;3.90;;;;;;;24.23;51.36;101962.81;2632567;54;20130;-83
2021/08/11 10:13:19;;;;;;;6.10;4.07;;;;;;;24.46;49.10;101955.38;2635702;38;20792;-80
2021/08/11 10:15:45;;;;;;;4.80;4.22;;;;;;;24.43;49.14;101951.94;2632814;46;20143;-81
2021/08/11 10:18:12;;;;;;;5.97;4.05;;;;;;;24.42;49.39;101955.47;2634015;38;20734;-81
2021/08/11 10:20:40;;;;;;;5.65;4.18;;;;;;;24.10;50.24;101960.44;2632939;54;20246;-80
2021/08/11 10:23:05;;;;;;;5.13;4.20;;;;;;;23.81;48.98;101958.28;2632869;54;20174;-80
2021/08/11 10:25:30;;;;;;;5.70;3.83;;;;;;;23.42;50.07;101956.31;2633008;46;21018;-81
2021/08/11 10:27:57;;;;;;;5.77;4.40;;;;;;;23.37;49.84;101960.75;2632929;54;20928;-81
2021/08/11 10:30:22;;;;;;;4.57;4.07;;;;;;;23.14;50.34;101965.44;2637636;38;20836;-80
2021/08/11 10:32:48;;;;;;;6.40;3.93;;;;;;;23.45;51.01;101964.13;2634118;46;20123;-81
2021/08/11 10:35:14;;;;;;;6.80;4.20;;;;;;;23.62;51.67;101956.03;2633070;54;20147;-81
2021/08/11 10:37:41;;;;;;;4.50;4.07;;;;;;;23.82;50.86;101952.19;2632877;54;20143;-81
2021/08/11 10:40:07;;;;;;;7.70;4.80;;;;;;;24.26;50.62;101960.13;2632841;54;20135;-81
2021/08/11 10:42:32;;;;;;;5.97;4.10;;;;;;;24.43;48.62;101959.78;2632837;54;20127;-80
2021/08/11 10:44:59;;;;;;;4.78;3.63;;;;;;;24.52;49.80;101959.63;2633520;54;20123;-81
2021/08/11 10:47:30;;;;;;;5.05;4.05;;;;;;;24.68;48.23;101963.72;2633680;54;20176;-80
2021/08/11 10:50:04;;;;;;;4.30;3.90;;;;;;;24.85;48.30;101959.84;2633706;38;20696;-82
2021/08/11 10:52:31;;;;;;;5.45;3.83;;;;;;;25.02;48.02;101965.59;2629752;51;20780;-80
2021/08/11 10:54:59;;;;;;;4.63;3.78;;;;;;;25.00;48.39;101962.13;2631633;39;20804;-82
2021/08/11 10:57:33;;;;;;;5.15;3.95;;;;;;;25.14;48.24;101961.81;2628942;46;20163;-80
2021/08/11 10:59:59;;;;;;;5.10;3.47;;;;;;;25.34;46.99;101954.38;2629045;54;20739;-80
2021/08/11 11:02:42;;;;;;;7.43;4.00;;;;;;;25.42;45.94;101952.44;2629105;47;20154;-80
2021/08/11 11:05:31;;;;;;;3.97;3.40;;;;;;;25.59;45.81;101956.38;2629155;47;20134;-82
2021/08/11 11:08:13;;;;;;;5.32;3.50;;;;;;;25.57;46.22;101960.81;2629034;54;20206;-82
2021/08/11 11:10:43;;;;;;;4.80;3.95;;;;;;;25.53;45.96;101955.66;2629093;47;20140;-80
2021/08/11 11:13:23;;;;;;;5.15;3.90;;;;;;;25.49;45.55;101957.50;2629010;51;20123;-80
2021/08/11 11:15:52;;;;;;;4.30;3.35;;;;;;;25.39;45.76;101953.38;2629029;54;20123;-81
2021/08/11 11:18:23;;;;;;;5.18;3.63;;;;;;;25.37;46.11;101962.19;2628806;54;20246;-82
2021/08/11 11:20:59;;;;;;;3.50;2.78;;;;;;;25.47;47.35;101961.06;2629182;47;20183;-81
2021/08/11 11:23:32;;;;;;;3.50;3.00;;;;;;;25.71;45.91;101960.47;2628819;47;20114;-81
2021/08/11 11:25:59;;;;;;;4.38;3.70;;;;;;;25.83;45.35;101957.56;2628717;54;20123;-78
2021/08/11 11:28:56;;;;;;;4.35;3.38;;;;;;;25.50;47.07;101956.59;2629941;47;20155;-81
2021/08/11 11:31:41;;;;;;;4.85;3.35;;;;;;;25.34;46.54;101954.38;2630171;47;20205;-81
2021/08/11 11:34:34;;;;;;;3.65;3.25;;;;;;;25.19;46.49;101960.81;2630488;54;20117;-80
2021/08/11 11:36:59;;;;;;;4.13;2.97;;;;;;;25.14;48.13;101953.97;2629361;46;20171;-81
2021/08/11 11:39:26;;;;;;;4.72;3.35;;;;;;;25.29;48.06;101945.75;2629015;54;20893;-82
2021/08/11 11:42:07;;;;;;;3.50;2.90;;;;;;;25.53;44.81;101943.44;2629405;39;20800;-82
2021/08/11 11:44:41;;;;;;;3.88;2.80;;;;;;;25.43;46.46;101949.81;2647053;36;20178;-83
2021/08/11 11:47:07;;;;;;;5.00;3.03;;;;;;;25.30;47.26;101956.22;2628838;54;20797;-83
2021/08/11 11:49:32;;;;;;;7.53;3.17;;;;;;;25.41;46.37;101950.72;2628635;54;20135;-81
2021/08/11 11:51:58;;;;;;;3.88;2.92;;;;;;;25.33;47.62;101948.25;2629038;54;20127;-82
2021/08/11 11:54:24;;;;;;;4.88;3.15;;;;;;;25.58;46.14;101953.78;2628952;54;20132;-81
2021/08/11 11:56:49;;;;;;;3.08;2.33;;;;;;;25.62;46.41;101947.56;2629179;54;20144;-81
2021/08/11 11:59:15;;;;;;;4.88;3.08;;;;;;;25.91;46.42;101947.69;2629887;54;20112;-80
2021/08/11 12:01:41;;;;;;;2.97;2.67;;;;;;;25.86;45.31;101954.81;2629462;47;20783;-81